sensor_id;sensor_type;location;lat;lon;timestamp;P1;durP1;ratioP1;P2;durP2;ratioP2
6255;SDS011;3161;48.794;9.784;2024-01-27T00:00:51;5.47;;;2.03;;
6255;SDS011;3161;48.794;9.784;2024-01-27T00:03:19;5.93;;;1.63;;
6255;SDS011;3161;48.794;9.784;2024-01-27T00:05:46;4.53;;;1.90;;
6255;SDS011;3161;48.794;9.784;2024-01-27T00:08:14;4.70;;;2.10;;
6255;SDS011;3161;48.794;9.784;2024-01-27T00:10:41;3.10;;;1.83;;
6255;SDS011;3161;48.794;9.784;2024-01-27T00:13:11;13.77;;;1.83;;
6255;SDS011;3161;48.794;9.784;2024-01-27T00:15:39;6.93;;;1.53;;
6255;SDS011;3161;48.794;9.784;2024-01-27T00:18:06;1.60;;;1.50;;
6255;SDS011;3161;48.794;9.784;2024-01-27T00:20:34;11.87;;;1.73;;
6255;SDS011;3161;48.794;9.784;2024-01-27T00:23:01;17.70;;;1.70;;
6255;SDS011;3161;48.794;9.784;2024-01-27T00:25:29;16.63;;;1.63;;
6255;SDS011;3161;48.794;9.784;2024-01-27T00:27:57;22.43;;;2.00;;
6255;SDS011;3161;48.794;9.784;2024-01-27T00:30:24;12.47;;;1.50;;
6255;SDS011;3161;48.794;9.784;2024-01-27T00:32:52;16.70;;;1.50;;
6255;SDS011;3161;48.794;9.784;2024-01-27T00:35:20;18.63;;;1.73;;
6255;SDS011;3161;48.794;9.784;2024-01-27T00:37:47;13.77;;;1.40;;
6255;SDS011;3161;48.794;9.784;2024-01-27T00:40:15;17.27;;;1.70;;
6255;SDS011;3161;48.794;9.784;2024-01-27T00:42:42;14.47;;;1.50;;
6255;SDS011;3161;48.794;9.784;2024-01-27T00:45:10;7.27;;;1.40;;
6255;SDS011;3161;48.794;9.784;2024-01-27T00:47:37;24.30;;;1.87;;
6255;SDS011;3161;48.794;9.784;2024-01-27T00:50:05;10.27;;;1.57;;
6255;SDS011;3161;48.794;9.784;2024-01-27T00:52:34;8.13;;;1.63;;
6255;SDS011;3161;48.794;9.784;2024-01-27T00:55:02;19.63;;;1.60;;
6255;SDS011;3161;48.794;9.784;2024-01-27T00:57:30;10.67;;;1.63;;
6255;SDS011;3161;48.794;9.784;2024-01-27T00:59:58;28.73;;;2.07;;
6255;SDS011;3161;48.794;9.784;2024-01-27T01:02:25;21.43;;;1.83;;
6255;SDS011;3161;48.794;9.784;2024-01-27T01:04:54;12.87;;;1.63;;
6255;SDS011;3161;48.794;9.784;2024-01-27T01:07:21;13.10;;;1.90;;
6255;SDS011;3161;48.794;9.784;2024-01-27T01:09:49;14.83;;;1.70;;
6255;SDS011;3161;48.794;9.784;2024-01-27T01:12:16;4.73;;;1.53;;
6255;SDS011;3161;48.794;9.784;2024-01-27T01:14:44;18.57;;;1.53;;
6255;SDS011;3161;48.794;9.784;2024-01-27T01:17:12;40.20;;;2.17;;
6255;SDS011;3161;48.794;9.784;2024-01-27T01:19:42;18.13;;;2.07;;
6255;SDS011;3161;48.794;9.784;2024-01-27T01:22:10;11.83;;;1.97;;
6255;SDS011;3161;48.794;9.784;2024-01-27T01:24:38;7.63;;;1.60;;
6255;SDS011;3161;48.794;9.784;2024-01-27T01:27:05;24.63;;;1.43;;
6255;SDS011;3161;48.794;9.784;2024-01-27T01:29:33;8.63;;;1.53;;
6255;SDS011;3161;48.794;9.784;2024-01-27T01:32:01;6.63;;;1.30;;
6255;SDS011;3161;48.794;9.784;2024-01-27T01:34:28;18.77;;;1.93;;
6255;SDS011;3161;48.794;9.784;2024-01-27T01:36:57;3.67;;;1.43;;
6255;SDS011;3161;48.794;9.784;2024-01-27T01:39:25;11.30;;;1.43;;
6255;SDS011;3161;48.794;9.784;2024-01-27T01:41:52;11.77;;;1.40;;
6255;SDS011;3161;48.794;9.784;2024-01-27T01:44:20;10.40;;;1.47;;
6255;SDS011;3161;48.794;9.784;2024-01-27T01:46:47;3.40;;;1.63;;
6255;SDS011;3161;48.794;9.784;2024-01-27T01:49:15;16.80;;;1.90;;
6255;SDS011;3161;48.794;9.784;2024-01-27T01:51:42;7.57;;;1.53;;
6255;SDS011;3161;48.794;9.784;2024-01-27T01:54:10;2.00;;;1.40;;
6255;SDS011;3161;48.794;9.784;2024-01-27T01:56:39;20.43;;;1.60;;
6255;SDS011;3161;48.794;9.784;2024-01-27T01:59:06;18.20;;;2.03;;
6255;SDS011;3161;48.794;9.784;2024-01-27T02:01:34;10.07;;;1.30;;
6255;SDS011;3161;48.794;9.784;2024-01-27T02:04:01;21.70;;;1.93;;
6255;SDS011;3161;48.794;9.784;2024-01-27T02:06:30;12.10;;;1.83;;
6255;SDS011;3161;48.794;9.784;2024-01-27T02:08:58;8.27;;;1.77;;
6255;SDS011;3161;48.794;9.784;2024-01-27T02:11:26;5.43;;;1.43;;
6255;SDS011;3161;48.794;9.784;2024-01-27T02:13:53;2.70;;;1.50;;
6255;SDS011;3161;48.794;9.784;2024-01-27T02:16:21;8.93;;;1.73;;
6255;SDS011;3161;48.794;9.784;2024-01-27T02:18:48;21.63;;;2.03;;
6255;SDS011;3161;48.794;9.784;2024-01-27T02:21:16;14.77;;;1.50;;
6255;SDS011;3161;48.794;9.784;2024-01-27T02:23:43;4.07;;;1.20;;
6255;SDS011;3161;48.794;9.784;2024-01-27T02:26:11;16.30;;;2.00;;
6255;SDS011;3161;48.794;9.784;2024-01-27T02:28:39;10.53;;;1.73;;
6255;SDS011;3161;48.794;9.784;2024-01-27T02:31:06;12.67;;;1.50;;
6255;SDS011;3161;48.794;9.784;2024-01-27T02:33:34;21.63;;;2.17;;
6255;SDS011;3161;48.794;9.784;2024-01-27T02:36:01;12.40;;;1.40;;
6255;SDS011;3161;48.794;9.784;2024-01-27T02:38:29;3.80;;;1.37;;
6255;SDS011;3161;48.794;9.784;2024-01-27T02:40:56;17.07;;;1.70;;
6255;SDS011;3161;48.794;9.784;2024-01-27T02:43:24;6.23;;;1.50;;
6255;SDS011;3161;48.794;9.784;2024-01-27T02:45:51;16.97;;;1.83;;
6255;SDS011;3161;48.794;9.784;2024-01-27T02:48:19;14.83;;;2.00;;
6255;SDS011;3161;48.794;9.784;2024-01-27T02:50:46;23.10;;;1.90;;
6255;SDS011;3161;48.794;9.784;2024-01-27T02:53:14;14.77;;;1.70;;
6255;SDS011;3161;48.794;9.784;2024-01-27T02:55:41;33.00;;;2.10;;
6255;SDS011;3161;48.794;9.784;2024-01-27T02:58:09;12.20;;;1.57;;
6255;SDS011;3161;48.794;9.784;2024-01-27T03:00:36;1.77;;;1.30;;
6255;SDS011;3161;48.794;9.784;2024-01-27T03:03:04;3.80;;;1.50;;
6255;SDS011;3161;48.794;9.784;2024-01-27T03:05:32;6.37;;;1.70;;
6255;SDS011;3161;48.794;9.784;2024-01-27T03:08:00;12.70;;;1.97;;
6255;SDS011;3161;48.794;9.784;2024-01-27T03:10:28;6.23;;;1.60;;
6255;SDS011;3161;48.794;9.784;2024-01-27T03:12:57;5.07;;;1.77;;
6255;SDS011;3161;48.794;9.784;2024-01-27T03:15:24;15.53;;;1.70;;
6255;SDS011;3161;48.794;9.784;2024-01-27T03:17:52;23.70;;;2.27;;
6255;SDS011;3161;48.794;9.784;2024-01-27T03:20:20;18.70;;;2.23;;
6255;SDS011;3161;48.794;9.784;2024-01-27T03:22:48;28.20;;;2.50;;
6255;SDS011;3161;48.794;9.784;2024-01-27T03:25:15;12.13;;;1.83;;
6255;SDS011;3161;48.794;9.784;2024-01-27T03:27:43;30.87;;;2.23;;
6255;SDS011;3161;48.794;9.784;2024-01-27T03:30:11;11.37;;;1.77;;
6255;SDS011;3161;48.794;9.784;2024-01-27T03:32:39;18.90;;;1.80;;
6255;SDS011;3161;48.794;9.784;2024-01-27T03:35:08;22.93;;;1.80;;
6255;SDS011;3161;48.794;9.784;2024-01-27T03:37:35;28.50;;;1.90;;
6255;SDS011;3161;48.794;9.784;2024-01-27T03:40:03;35.23;;;2.07;;
6255;SDS011;3161;48.794;9.784;2024-01-27T03:42:31;18.27;;;1.70;;
6255;SDS011;3161;48.794;9.784;2024-01-27T03:44:59;25.60;;;1.83;;
6255;SDS011;3161;48.794;9.784;2024-01-27T03:47:27;39.07;;;2.33;;
6255;SDS011;3161;48.794;9.784;2024-01-27T03:49:54;13.57;;;1.80;;
6255;SDS011;3161;48.794;9.784;2024-01-27T03:52:22;37.87;;;2.30;;
6255;SDS011;3161;48.794;9.784;2024-01-27T03:54:49;33.17;;;2.10;;
6255;SDS011;3161;48.794;9.784;2024-01-27T03:57:17;40.40;;;2.57;;
6255;SDS011;3161;48.794;9.784;2024-01-27T03:59:44;21.10;;;2.07;;
6255;SDS011;3161;48.794;9.784;2024-01-27T04:02:12;24.60;;;2.10;;
6255;SDS011;3161;48.794;9.784;2024-01-27T04:04:39;16.63;;;2.20;;
6255;SDS011;3161;48.794;9.784;2024-01-27T04:07:07;5.07;;;1.70;;
6255;SDS011;3161;48.794;9.784;2024-01-27T04:09:34;12.03;;;1.70;;
6255;SDS011;3161;48.794;9.784;2024-01-27T04:12:02;5.97;;;1.40;;
6255;SDS011;3161;48.794;9.784;2024-01-27T04:14:29;12.67;;;2.00;;
6255;SDS011;3161;48.794;9.784;2024-01-27T04:16:57;11.70;;;2.43;;
6255;SDS011;3161;48.794;9.784;2024-01-27T04:19:24;51.43;;;2.50;;
6255;SDS011;3161;48.794;9.784;2024-01-27T04:21:52;31.60;;;2.20;;
6255;SDS011;3161;48.794;9.784;2024-01-27T04:24:19;24.77;;;2.17;;
6255;SDS011;3161;48.794;9.784;2024-01-27T04:26:47;24.37;;;2.50;;
6255;SDS011;3161;48.794;9.784;2024-01-27T04:29:15;12.60;;;2.43;;
6255;SDS011;3161;48.794;9.784;2024-01-27T04:31:42;26.17;;;2.00;;
6255;SDS011;3161;48.794;9.784;2024-01-27T04:34:10;17.63;;;2.10;;
6255;SDS011;3161;48.794;9.784;2024-01-27T04:36:37;8.13;;;2.33;;
6255;SDS011;3161;48.794;9.784;2024-01-27T04:39:05;26.17;;;2.40;;
6255;SDS011;3161;48.794;9.784;2024-01-27T04:41:33;10.73;;;2.37;;
6255;SDS011;3161;48.794;9.784;2024-01-27T04:44:00;5.10;;;1.60;;
6255;SDS011;3161;48.794;9.784;2024-01-27T04:46:28;11.97;;;2.00;;
6255;SDS011;3161;48.794;9.784;2024-01-27T04:48:55;8.27;;;2.20;;
6255;SDS011;3161;48.794;9.784;2024-01-27T04:51:23;2.30;;;1.73;;
6255;SDS011;3161;48.794;9.784;2024-01-27T04:53:50;4.57;;;1.53;;
6255;SDS011;3161;48.794;9.784;2024-01-27T04:56:18;2.53;;;2.10;;
6255;SDS011;3161;48.794;9.784;2024-01-27T04:58:45;10.87;;;2.40;;
6255;SDS011;3161;48.794;9.784;2024-01-27T05:01:13;4.30;;;1.70;;
6255;SDS011;3161;48.794;9.784;2024-01-27T05:03:40;5.10;;;2.40;;
6255;SDS011;3161;48.794;9.784;2024-01-27T05:06:08;12.07;;;2.20;;
6255;SDS011;3161;48.794;9.784;2024-01-27T05:08:35;3.13;;;2.23;;
6255;SDS011;3161;48.794;9.784;2024-01-27T05:11:03;3.70;;;2.50;;
6255;SDS011;3161;48.794;9.784;2024-01-27T05:13:30;1.97;;;1.87;;
6255;SDS011;3161;48.794;9.784;2024-01-27T05:15:58;3.20;;;2.10;;
6255;SDS011;3161;48.794;9.784;2024-01-27T05:18:25;1.83;;;1.70;;
6255;SDS011;3161;48.794;9.784;2024-01-27T05:20:53;3.73;;;3.03;;
6255;SDS011;3161;48.794;9.784;2024-01-27T05:23:20;2.73;;;2.47;;
6255;SDS011;3161;48.794;9.784;2024-01-27T05:25:49;5.37;;;2.40;;
6255;SDS011;3161;48.794;9.784;2024-01-27T05:28:16;4.97;;;1.93;;
6255;SDS011;3161;48.794;9.784;2024-01-27T05:30:44;3.87;;;2.07;;
6255;SDS011;3161;48.794;9.784;2024-01-27T05:33:11;3.70;;;2.43;;
6255;SDS011;3161;48.794;9.784;2024-01-27T05:35:39;1.80;;;1.70;;
6255;SDS011;3161;48.794;9.784;2024-01-27T05:38:06;4.30;;;2.40;;
6255;SDS011;3161;48.794;9.784;2024-01-27T05:40:35;3.47;;;2.23;;
6255;SDS011;3161;48.794;9.784;2024-01-27T05:43:02;5.93;;;3.03;;
6255;SDS011;3161;48.794;9.784;2024-01-27T05:45:30;4.10;;;2.00;;
6255;SDS011;3161;48.794;9.784;2024-01-27T05:47:58;1.97;;;1.87;;
6255;SDS011;3161;48.794;9.784;2024-01-27T05:50:26;2.80;;;2.20;;
6255;SDS011;3161;48.794;9.784;2024-01-27T05:52:53;4.17;;;2.60;;
6255;SDS011;3161;48.794;9.784;2024-01-27T05:55:21;2.00;;;1.90;;
6255;SDS011;3161;48.794;9.784;2024-01-27T05:57:48;2.07;;;1.83;;
6255;SDS011;3161;48.794;9.784;2024-01-27T06:00:16;3.40;;;2.47;;
6255;SDS011;3161;48.794;9.784;2024-01-27T06:02:44;12.30;;;2.50;;
6255;SDS011;3161;48.794;9.784;2024-01-27T06:05:11;2.37;;;2.17;;
6255;SDS011;3161;48.794;9.784;2024-01-27T06:07:39;3.33;;;2.10;;
6255;SDS011;3161;48.794;9.784;2024-01-27T06:10:07;2.63;;;1.90;;
6255;SDS011;3161;48.794;9.784;2024-01-27T06:12:36;2.70;;;2.50;;
6255;SDS011;3161;48.794;9.784;2024-01-27T06:15:05;4.47;;;2.30;;
6255;SDS011;3161;48.794;9.784;2024-01-27T06:17:34;3.07;;;2.30;;
6255;SDS011;3161;48.794;9.784;2024-01-27T06:20:02;3.67;;;2.30;;
6255;SDS011;3161;48.794;9.784;2024-01-27T06:22:31;8.10;;;2.13;;
6255;SDS011;3161;48.794;9.784;2024-01-27T06:24:58;3.53;;;2.07;;
6255;SDS011;3161;48.794;9.784;2024-01-27T06:27:26;4.80;;;2.40;;
6255;SDS011;3161;48.794;9.784;2024-01-27T06:29:53;4.37;;;2.20;;
6255;SDS011;3161;48.794;9.784;2024-01-27T06:32:21;2.93;;;2.23;;
6255;SDS011;3161;48.794;9.784;2024-01-27T06:34:48;2.80;;;2.07;;
6255;SDS011;3161;48.794;9.784;2024-01-27T06:37:16;2.23;;;2.03;;
6255;SDS011;3161;48.794;9.784;2024-01-27T06:39:43;5.03;;;2.20;;
6255;SDS011;3161;48.794;9.784;2024-01-27T06:42:11;3.33;;;2.00;;
6255;SDS011;3161;48.794;9.784;2024-01-27T06:44:38;2.87;;;2.37;;
6255;SDS011;3161;48.794;9.784;2024-01-27T06:47:06;4.77;;;3.43;;
6255;SDS011;3161;48.794;9.784;2024-01-27T06:49:33;4.87;;;2.67;;
6255;SDS011;3161;48.794;9.784;2024-01-27T06:52:01;5.27;;;2.43;;
6255;SDS011;3161;48.794;9.784;2024-01-27T06:54:29;2.20;;;2.00;;
6255;SDS011;3161;48.794;9.784;2024-01-27T06:56:59;2.47;;;2.27;;
6255;SDS011;3161;48.794;9.784;2024-01-27T06:59:29;2.80;;;2.60;;
6255;SDS011;3161;48.794;9.784;2024-01-27T07:01:56;5.42;;;3.15;;
6255;SDS011;3161;48.794;9.784;2024-01-27T07:04:24;2.60;;;2.40;;
6255;SDS011;3161;48.794;9.784;2024-01-27T07:06:51;5.80;;;3.20;;
6255;SDS011;3161;48.794;9.784;2024-01-27T07:09:19;6.30;;;3.93;;
6255;SDS011;3161;48.794;9.784;2024-01-27T07:11:46;4.23;;;2.70;;
6255;SDS011;3161;48.794;9.784;2024-01-27T07:14:15;4.27;;;3.17;;
6255;SDS011;3161;48.794;9.784;2024-01-27T07:16:42;4.83;;;3.17;;
6255;SDS011;3161;48.794;9.784;2024-01-27T07:19:10;4.97;;;3.33;;
6255;SDS011;3161;48.794;9.784;2024-01-27T07:21:39;5.40;;;3.43;;
6255;SDS011;3161;48.794;9.784;2024-01-27T07:24:07;5.23;;;3.83;;
6255;SDS011;3161;48.794;9.784;2024-01-27T07:26:35;8.50;;;3.27;;
6255;SDS011;3161;48.794;9.784;2024-01-27T07:29:02;5.67;;;3.30;;
6255;SDS011;3161;48.794;9.784;2024-01-27T07:31:30;5.97;;;3.80;;
6255;SDS011;3161;48.794;9.784;2024-01-27T07:33:57;8.53;;;3.97;;
6255;SDS011;3161;48.794;9.784;2024-01-27T07:36:25;6.37;;;3.80;;
6255;SDS011;3161;48.794;9.784;2024-01-27T07:38:54;10.37;;;4.00;;
6255;SDS011;3161;48.794;9.784;2024-01-27T07:41:21;6.17;;;4.13;;
6255;SDS011;3161;48.794;9.784;2024-01-27T07:43:49;5.53;;;3.77;;
6255;SDS011;3161;48.794;9.784;2024-01-27T07:46:17;11.47;;;4.43;;
6255;SDS011;3161;48.794;9.784;2024-01-27T07:48:46;9.43;;;3.87;;
6255;SDS011;3161;48.794;9.784;2024-01-27T07:51:15;7.77;;;4.70;;
6255;SDS011;3161;48.794;9.784;2024-01-27T07:53:42;13.00;;;5.13;;
6255;SDS011;3161;48.794;9.784;2024-01-27T07:56:10;18.07;;;5.10;;
6255;SDS011;3161;48.794;9.784;2024-01-27T07:58:37;7.80;;;4.70;;
6255;SDS011;3161;48.794;9.784;2024-01-27T08:01:05;12.97;;;4.33;;
6255;SDS011;3161;48.794;9.784;2024-01-27T08:03:32;10.40;;;4.80;;
6255;SDS011;3161;48.794;9.784;2024-01-27T08:06:04;6.10;;;4.43;;
6255;SDS011;3161;48.794;9.784;2024-01-27T08:08:34;11.23;;;5.70;;
6255;SDS011;3161;48.794;9.784;2024-01-27T08:11:02;20.70;;;5.03;;
6255;SDS011;3161;48.794;9.784;2024-01-27T08:13:29;11.27;;;6.23;;
6255;SDS011;3161;48.794;9.784;2024-01-27T08:15:57;19.53;;;7.07;;
6255;SDS011;3161;48.794;9.784;2024-01-27T08:18:24;35.60;;;6.50;;
6255;SDS011;3161;48.794;9.784;2024-01-27T08:20:52;22.93;;;7.53;;
6255;SDS011;3161;48.794;9.784;2024-01-27T08:23:19;10.43;;;6.10;;
6255;SDS011;3161;48.794;9.784;2024-01-27T08:25:48;14.37;;;6.37;;
6255;SDS011;3161;48.794;9.784;2024-01-27T08:28:18;12.13;;;5.93;;
6255;SDS011;3161;48.794;9.784;2024-01-27T08:30:45;20.20;;;6.50;;
6255;SDS011;3161;48.794;9.784;2024-01-27T08:33:13;26.53;;;6.33;;
6255;SDS011;3161;48.794;9.784;2024-01-27T08:35:41;24.87;;;5.60;;
6255;SDS011;3161;48.794;9.784;2024-01-27T08:38:09;18.63;;;5.57;;
6255;SDS011;3161;48.794;9.784;2024-01-27T08:40:37;20.73;;;6.57;;
6255;SDS011;3161;48.794;9.784;2024-01-27T08:43:04;18.33;;;6.73;;
6255;SDS011;3161;48.794;9.784;2024-01-27T08:45:32;21.00;;;6.57;;
6255;SDS011;3161;48.794;9.784;2024-01-27T08:47:59;24.13;;;6.03;;
6255;SDS011;3161;48.794;9.784;2024-01-27T08:50:27;8.77;;;6.13;;
6255;SDS011;3161;48.794;9.784;2024-01-27T08:52:55;10.63;;;5.93;;
6255;SDS011;3161;48.794;9.784;2024-01-27T08:55:22;11.83;;;6.50;;
6255;SDS011;3161;48.794;9.784;2024-01-27T08:57:50;9.37;;;6.10;;
6255;SDS011;3161;48.794;9.784;2024-01-27T09:00:18;10.53;;;7.30;;
6255;SDS011;3161;48.794;9.784;2024-01-27T09:02:46;10.97;;;6.60;;
6255;SDS011;3161;48.794;9.784;2024-01-27T09:05:13;16.93;;;7.90;;
6255;SDS011;3161;48.794;9.784;2024-01-27T09:07:41;11.23;;;6.67;;
6255;SDS011;3161;48.794;9.784;2024-01-27T09:10:09;10.13;;;6.73;;
6255;SDS011;3161;48.794;9.784;2024-01-27T09:12:38;11.47;;;6.90;;
6255;SDS011;3161;48.794;9.784;2024-01-27T09:15:06;9.63;;;6.90;;
6255;SDS011;3161;48.794;9.784;2024-01-27T09:17:34;11.23;;;7.40;;
6255;SDS011;3161;48.794;9.784;2024-01-27T09:20:01;14.63;;;7.60;;
6255;SDS011;3161;48.794;9.784;2024-01-27T09:22:29;11.03;;;7.57;;
6255;SDS011;3161;48.794;9.784;2024-01-27T09:24:57;9.43;;;6.33;;
6255;SDS011;3161;48.794;9.784;2024-01-27T09:27:24;10.37;;;6.57;;
6255;SDS011;3161;48.794;9.784;2024-01-27T09:29:52;11.07;;;7.03;;
6255;SDS011;3161;48.794;9.784;2024-01-27T09:32:19;10.17;;;5.17;;
6255;SDS011;3161;48.794;9.784;2024-01-27T09:34:47;9.00;;;6.33;;
6255;SDS011;3161;48.794;9.784;2024-01-27T09:37:14;11.37;;;7.00;;
6255;SDS011;3161;48.794;9.784;2024-01-27T09:39:42;15.00;;;7.20;;
6255;SDS011;3161;48.794;9.784;2024-01-27T09:42:09;13.67;;;8.90;;
6255;SDS011;3161;48.794;9.784;2024-01-27T09:44:43;10.23;;;7.23;;
6255;SDS011;3161;48.794;9.784;2024-01-27T09:47:11;11.63;;;6.53;;
6255;SDS011;3161;48.794;9.784;2024-01-27T09:49:42;10.83;;;6.50;;
6255;SDS011;3161;48.794;9.784;2024-01-27T09:52:10;10.17;;;6.70;;
6255;SDS011;3161;48.794;9.784;2024-01-27T09:54:37;8.50;;;6.40;;
6255;SDS011;3161;48.794;9.784;2024-01-27T09:57:08;9.50;;;5.63;;
6255;SDS011;3161;48.794;9.784;2024-01-27T09:59:37;8.93;;;6.20;;
6255;SDS011;3161;48.794;9.784;2024-01-27T10:02:11;13.80;;;7.60;;
6255;SDS011;3161;48.794;9.784;2024-01-27T10:04:40;10.30;;;7.40;;
6255;SDS011;3161;48.794;9.784;2024-01-27T10:07:08;13.30;;;8.30;;
6255;SDS011;3161;48.794;9.784;2024-01-27T10:09:36;20.03;;;8.30;;
6255;SDS011;3161;48.794;9.784;2024-01-27T10:12:05;11.80;;;7.40;;
6255;SDS011;3161;48.794;9.784;2024-01-27T10:14:43;8.73;;;6.60;;
6255;SDS011;3161;48.794;9.784;2024-01-27T10:17:12;7.60;;;5.77;;
6255;SDS011;3161;48.794;9.784;2024-01-27T10:19:36;10.60;;;6.00;;
6255;SDS011;3161;48.794;9.784;2024-01-27T10:22:03;9.77;;;6.00;;
6255;SDS011;3161;48.794;9.784;2024-01-27T10:24:31;8.00;;;5.67;;
6255;SDS011;3161;48.794;9.784;2024-01-27T10:27:01;13.90;;;5.37;;
6255;SDS011;3161;48.794;9.784;2024-01-27T10:29:29;10.23;;;5.23;;
6255;SDS011;3161;48.794;9.784;2024-01-27T10:32:07;10.77;;;4.93;;
6255;SDS011;3161;48.794;9.784;2024-01-27T10:34:35;7.60;;;4.40;;
6255;SDS011;3161;48.794;9.784;2024-01-27T10:37:03;10.37;;;4.80;;
6255;SDS011;3161;48.794;9.784;2024-01-27T10:39:31;9.00;;;4.20;;
6255;SDS011;3161;48.794;9.784;2024-01-27T10:41:58;10.83;;;4.27;;
6255;SDS011;3161;48.794;9.784;2024-01-27T10:44:31;6.47;;;3.87;;
6255;SDS011;3161;48.794;9.784;2024-01-27T10:47:01;11.70;;;4.80;;
6255;SDS011;3161;48.794;9.784;2024-01-27T10:49:31;9.47;;;5.73;;
6255;SDS011;3161;48.794;9.784;2024-01-27T10:52:01;6.80;;;4.33;;
6255;SDS011;3161;48.794;9.784;2024-01-27T10:54:31;9.33;;;5.37;;
6255;SDS011;3161;48.794;9.784;2024-01-27T10:57:01;6.07;;;4.70;;
6255;SDS011;3161;48.794;9.784;2024-01-27T10:59:29;7.27;;;5.33;;
6255;SDS011;3161;48.794;9.784;2024-01-27T11:01:58;9.80;;;3.77;;
6255;SDS011;3161;48.794;9.784;2024-01-27T11:04:26;8.93;;;4.87;;
6255;SDS011;3161;48.794;9.784;2024-01-27T11:06:55;9.37;;;4.63;;
6255;SDS011;3161;48.794;9.784;2024-01-27T11:09:25;9.10;;;4.00;;
6255;SDS011;3161;48.794;9.784;2024-01-27T11:11:54;9.30;;;3.27;;
6255;SDS011;3161;48.794;9.784;2024-01-27T11:14:21;6.87;;;3.30;;
6255;SDS011;3161;48.794;9.784;2024-01-27T11:16:54;7.83;;;3.90;;
6255;SDS011;3161;48.794;9.784;2024-01-27T11:19:22;5.10;;;3.10;;
6255;SDS011;3161;48.794;9.784;2024-01-27T11:22:04;18.67;;;3.07;;
6255;SDS011;3161;48.794;9.784;2024-01-27T11:24:30;3.80;;;2.63;;
6255;SDS011;3161;48.794;9.784;2024-01-27T11:27:03;3.87;;;2.57;;
6255;SDS011;3161;48.794;9.784;2024-01-27T11:29:32;8.40;;;2.30;;
6255;SDS011;3161;48.794;9.784;2024-01-27T11:32:01;14.10;;;2.33;;
6255;SDS011;3161;48.794;9.784;2024-01-27T11:34:42;5.37;;;2.40;;
6255;SDS011;3161;48.794;9.784;2024-01-27T11:37:11;8.33;;;2.47;;
6255;SDS011;3161;48.794;9.784;2024-01-27T11:39:39;6.90;;;2.20;;
6255;SDS011;3161;48.794;9.784;2024-01-27T11:42:07;5.57;;;2.33;;
6255;SDS011;3161;48.794;9.784;2024-01-27T11:44:38;11.07;;;2.70;;
6255;SDS011;3161;48.794;9.784;2024-01-27T11:47:15;10.57;;;2.57;;
6255;SDS011;3161;48.794;9.784;2024-01-27T11:49:51;11.97;;;2.33;;
6255;SDS011;3161;48.794;9.784;2024-01-27T11:52:19;6.73;;;2.30;;
6255;SDS011;3161;48.794;9.784;2024-01-27T11:54:57;6.43;;;2.00;;
6255;SDS011;3161;48.794;9.784;2024-01-27T11:57:26;9.97;;;4.70;;
6255;SDS011;3161;48.794;9.784;2024-01-27T11:59:55;6.57;;;2.83;;
6255;SDS011;3161;48.794;9.784;2024-01-27T12:02:23;17.97;;;2.77;;
6255;SDS011;3161;48.794;9.784;2024-01-27T12:04:50;5.07;;;2.50;;
6255;SDS011;3161;48.794;9.784;2024-01-27T12:07:19;4.30;;;2.33;;
6255;SDS011;3161;48.794;9.784;2024-01-27T12:09:48;9.07;;;2.43;;
6255;SDS011;3161;48.794;9.784;2024-01-27T12:12:16;7.90;;;2.70;;
6255;SDS011;3161;48.794;9.784;2024-01-27T12:14:47;8.17;;;2.97;;
6255;SDS011;3161;48.794;9.784;2024-01-27T12:17:16;6.57;;;2.13;;
6255;SDS011;3161;48.794;9.784;2024-01-27T12:19:48;11.87;;;2.87;;
6255;SDS011;3161;48.794;9.784;2024-01-27T12:22:28;6.00;;;2.17;;
6255;SDS011;3161;48.794;9.784;2024-01-27T12:25:07;9.87;;;2.20;;
6255;SDS011;3161;48.794;9.784;2024-01-27T12:27:35;8.30;;;2.47;;
6255;SDS011;3161;48.794;9.784;2024-01-27T12:30:04;4.60;;;1.67;;
6255;SDS011;3161;48.794;9.784;2024-01-27T12:32:33;6.70;;;2.10;;
6255;SDS011;3161;48.794;9.784;2024-01-27T12:35:05;8.33;;;2.10;;
6255;SDS011;3161;48.794;9.784;2024-01-27T12:37:38;4.80;;;2.10;;
6255;SDS011;3161;48.794;9.784;2024-01-27T12:40:16;4.90;;;1.83;;
6255;SDS011;3161;48.794;9.784;2024-01-27T12:42:34;5.13;;;1.63;;
6255;SDS011;3161;48.794;9.784;2024-01-27T12:45:01;3.30;;;1.47;;
6255;SDS011;3161;48.794;9.784;2024-01-27T12:47:29;4.80;;;1.53;;
6255;SDS011;3161;48.794;9.784;2024-01-27T12:49:56;4.97;;;1.83;;
6255;SDS011;3161;48.794;9.784;2024-01-27T12:52:24;7.40;;;1.40;;
6255;SDS011;3161;48.794;9.784;2024-01-27T12:54:51;4.37;;;1.70;;
6255;SDS011;3161;48.794;9.784;2024-01-27T12:57:19;6.17;;;1.73;;
6255;SDS011;3161;48.794;9.784;2024-01-27T12:59:47;6.57;;;1.47;;
6255;SDS011;3161;48.794;9.784;2024-01-27T13:02:14;4.70;;;2.47;;
6255;SDS011;3161;48.794;9.784;2024-01-27T13:04:42;7.07;;;1.77;;
6255;SDS011;3161;48.794;9.784;2024-01-27T13:07:10;9.13;;;2.20;;
6255;SDS011;3161;48.794;9.784;2024-01-27T13:09:37;6.50;;;2.23;;
6255;SDS011;3161;48.794;9.784;2024-01-27T13:12:05;8.83;;;2.17;;
6255;SDS011;3161;48.794;9.784;2024-01-27T13:14:33;6.33;;;2.23;;
6255;SDS011;3161;48.794;9.784;2024-01-27T13:17:01;4.50;;;1.47;;
6255;SDS011;3161;48.794;9.784;2024-01-27T13:19:28;6.77;;;1.83;;
6255;SDS011;3161;48.794;9.784;2024-01-27T13:21:56;6.23;;;1.53;;
6255;SDS011;3161;48.794;9.784;2024-01-27T13:24:24;6.20;;;1.27;;
6255;SDS011;3161;48.794;9.784;2024-01-27T13:26:51;3.60;;;1.27;;
6255;SDS011;3161;48.794;9.784;2024-01-27T13:29:19;5.90;;;1.70;;
6255;SDS011;3161;48.794;9.784;2024-01-27T13:31:48;4.90;;;1.30;;
6255;SDS011;3161;48.794;9.784;2024-01-27T13:34:17;2.50;;;1.73;;
6255;SDS011;3161;48.794;9.784;2024-01-27T13:36:44;6.03;;;1.80;;
6255;SDS011;3161;48.794;9.784;2024-01-27T13:39:11;6.40;;;1.80;;
6255;SDS011;3161;48.794;9.784;2024-01-27T13:41:39;4.17;;;1.37;;
6255;SDS011;3161;48.794;9.784;2024-01-27T13:44:07;2.72;;;1.35;;
6255;SDS011;3161;48.794;9.784;2024-01-27T13:46:34;5.40;;;1.67;;
6255;SDS011;3161;48.794;9.784;2024-01-27T13:49:02;9.63;;;1.55;;
6255;SDS011;3161;48.794;9.784;2024-01-27T13:51:30;4.72;;;1.27;;
6255;SDS011;3161;48.794;9.784;2024-01-27T13:53:57;5.58;;;1.15;;
6255;SDS011;3161;48.794;9.784;2024-01-27T13:56:25;4.97;;;1.40;;
6255;SDS011;3161;48.794;9.784;2024-01-27T13:58:57;6.33;;;1.75;;
6255;SDS011;3161;48.794;9.784;2024-01-27T14:01:24;4.72;;;1.85;;
6255;SDS011;3161;48.794;9.784;2024-01-27T14:03:52;2.87;;;1.20;;
6255;SDS011;3161;48.794;9.784;2024-01-27T14:06:19;3.83;;;1.30;;
6255;SDS011;3161;48.794;9.784;2024-01-27T14:08:47;3.50;;;1.50;;
6255;SDS011;3161;48.794;9.784;2024-01-27T14:11:14;5.37;;;1.90;;
6255;SDS011;3161;48.794;9.784;2024-01-27T14:13:44;6.77;;;1.80;;
6255;SDS011;3161;48.794;9.784;2024-01-27T14:16:12;7.87;;;2.03;;
6255;SDS011;3161;48.794;9.784;2024-01-27T14:18:39;1.30;;;1.20;;
6255;SDS011;3161;48.794;9.784;2024-01-27T14:21:08;3.77;;;1.50;;
6255;SDS011;3161;48.794;9.784;2024-01-27T14:23:36;2.63;;;1.70;;
6255;SDS011;3161;48.794;9.784;2024-01-27T14:26:04;6.97;;;2.17;;
6255;SDS011;3161;48.794;9.784;2024-01-27T14:28:33;5.00;;;1.67;;
6255;SDS011;3161;48.794;9.784;2024-01-27T14:31:01;5.37;;;2.00;;
6255;SDS011;3161;48.794;9.784;2024-01-27T14:33:29;4.33;;;1.97;;
6255;SDS011;3161;48.794;9.784;2024-01-27T14:35:56;6.80;;;1.60;;
6255;SDS011;3161;48.794;9.784;2024-01-27T14:38:24;6.43;;;1.57;;
6255;SDS011;3161;48.794;9.784;2024-01-27T14:40:52;2.00;;;1.33;;
6255;SDS011;3161;48.794;9.784;2024-01-27T14:43:19;4.50;;;1.70;;
6255;SDS011;3161;48.794;9.784;2024-01-27T14:45:47;3.67;;;1.20;;
6255;SDS011;3161;48.794;9.784;2024-01-27T14:48:15;6.13;;;1.90;;
6255;SDS011;3161;48.794;9.784;2024-01-27T14:50:45;11.70;;;2.17;;
6255;SDS011;3161;48.794;9.784;2024-01-27T14:53:14;5.53;;;1.67;;
6255;SDS011;3161;48.794;9.784;2024-01-27T14:55:42;4.40;;;1.27;;
6255;SDS011;3161;48.794;9.784;2024-01-27T14:58:10;8.80;;;1.60;;
6255;SDS011;3161;48.794;9.784;2024-01-27T15:00:38;3.73;;;1.20;;
6255;SDS011;3161;48.794;9.784;2024-01-27T15:03:05;2.90;;;1.30;;
6255;SDS011;3161;48.794;9.784;2024-01-27T15:05:33;4.37;;;1.00;;
6255;SDS011;3161;48.794;9.784;2024-01-27T15:08:03;3.07;;;1.53;;
6255;SDS011;3161;48.794;9.784;2024-01-27T15:10:31;6.00;;;1.63;;
6255;SDS011;3161;48.794;9.784;2024-01-27T15:12:58;6.13;;;1.80;;
6255;SDS011;3161;48.794;9.784;2024-01-27T15:15:26;4.60;;;1.37;;